Time;durP1;ratioP1;P1;durP2;ratioP2;P2;SDS_P1;SDS_P2;PMS_P1;PMS_P2;Temp;Humidity;BMP_temperature;BMP_pressure;BME280_temperature;BME280_humidity;BME280_pressure;Samples;Min_cycle;Max_cycle;Signal;HPM_P1;HPM_P2
2022/12/17 13:08:20;;;;;;;70.70;32.40;;;-3.30;99.90;;;;;;5068559;28;20150;-69
2022/12/17 13:10:46;;;;;;;62.45;29.77;;;-3.40;99.90;;;;;;5065678;28;20071;-70
2022/12/17 13:13:21;;;;;;;67.25;30.20;;;-3.40;99.90;;;;;;5070607;28;20025;-69
2022/12/17 13:15:51;;;;;;;68.22;30.50;;;-3.40;99.90;;;;;;5069423;28;20024;-69
2022/12/17 13:18:34;;;;;;;66.82;30.52;;;-3.50;99.90;;;;;;5071045;28;20021;-69
2022/12/17 13:21:13;;;;;;;61.30;29.50;;;-3.50;99.90;;;;;;5074658;28;20056;-70
2022/12/17 13:23:39;;;;;;;62.50;29.55;;;-3.60;99.90;;;;;;5072386;28;20043;-69
2022/12/17 13:26:28;;;;;;;63.92;29.75;;;-3.60;99.90;;;;;;5069754;28;20033;-69
2022/12/17 13:28:54;;;;;;;67.90;29.90;;;-3.50;99.90;;;;;;5063301;28;20083;-69
2022/12/17 13:31:25;;;;;;;60.28;28.25;;;-3.50;99.90;;;;;;5070422;28;20430;-70
2022/12/17 13:33:54;;;;;;;60.08;28.95;;;-3.50;99.90;;;;;;5066941;28;20083;-69
2022/12/17 13:36:31;;;;;;;64.95;29.80;;;-3.50;99.90;;;;;;5070785;28;20012;-69
2022/12/17 13:39:18;;;;;;;67.60;31.13;;;-3.50;99.90;;;;;;5069355;28;20390;-68
2022/12/17 13:41:44;;;;;;;70.40;31.13;;;-3.50;99.90;;;;;;5068947;28;20032;-69
2022/12/17 13:44:28;;;;;;;68.97;32.17;;;-3.50;99.90;;;;;;5070747;28;20029;-69
2022/12/17 13:46:54;;;;;;;63.95;30.50;;;-3.60;99.90;;;;;;5070669;28;20462;-69
2022/12/17 13:49:25;;;;;;;66.88;31.45;;;-3.60;99.90;;;;;;5052346;28;20024;-69
2022/12/17 13:52:16;;;;;;;66.72;31.20;;;-3.60;99.90;;;;;;5073553;28;20120;-69
2022/12/17 13:54:42;;;;;;;66.57;30.85;;;-3.70;99.90;;;;;;5069288;28;20063;-70
2022/12/17 13:57:13;;;;;;;64.00;30.52;;;-3.80;99.90;;;;;;5073777;28;20024;-70
2022/12/17 13:59:38;;;;;;;71.28;32.35;;;-3.90;99.90;;;;;;5066485;28;20021;-69
2022/12/17 14:02:05;;;;;;;72.97;32.03;;;-4.00;99.90;;;;;;5075872;28;20715;-69
2022/12/17 14:04:31;;;;;;;76.78;32.88;;;-4.10;99.90;;;;;;5072650;28;20060;-70
2022/12/17 14:07:04;;;;;;;75.32;33.70;;;-4.20;99.90;;;;;;5073636;28;20040;-70
2022/12/17 14:09:35;;;;;;;80.78;34.58;;;-4.20;99.90;;;;;;5073129;28;20033;-69
2022/12/17 14:12:22;;;;;;;76.65;34.10;;;-4.30;99.90;;;;;;5070305;28;20031;-69
2022/12/17 14:15:03;;;;;;;67.95;32.38;;;-4.30;99.90;;;;;;5081520;28;20048;-70
2022/12/17 14:17:40;;;;;;;70.53;31.67;;;-4.40;99.90;;;;;;5072888;28;20090;-69
2022/12/17 14:20:13;;;;;;;71.75;32.15;;;-4.50;99.90;;;;;;5069822;28;20029;-69
2022/12/17 14:22:41;;;;;;;75.50;34.28;;;-4.50;99.90;;;;;;5074374;28;20028;-69
2022/12/17 14:25:35;;;;;;;75.28;33.25;;;-4.60;99.90;;;;;;5073587;28;20039;-68
2022/12/17 14:28:22;;;;;;;73.20;32.97;;;-4.60;99.90;;;;;;5073568;28;20052;-68
2022/12/17 14:30:51;;;;;;;80.18;33.35;;;;;;;;;;5078064;28;20040;-68
2022/12/17 14:33:43;;;;;;;72.43;31.73;;;;;;;;;;5072956;28;20493;-68
2022/12/17 14:36:16;;;;;;;75.10;32.28;;;;;;;;;;5071110;28;20424;-68
2022/12/17 14:38:51;;;;;;;74.15;32.58;;;;;;;;;;5071282;28;20069;-68
2022/12/17 14:44:18;;;;;;;74.63;32.33;;;;;;;;;;4989939;28;20110;-68
2022/12/17 14:46:44;;;;;;;78.75;35.42;;;;;;;;;;5080709;28;20115;-69
2022/12/17 14:49:18;;;;;;;80.97;34.83;;;;;;;;;;5079346;28;20029;-68
2022/12/17 14:51:44;;;;;;;86.03;36.33;;;;;;;;;;5071426;28;20060;-68
2022/12/17 14:54:13;;;;;;;84.97;37.97;;;;;;;;;;5072519;28;20033;-68
2022/12/17 14:56:39;;;;;;;85.20;37.22;;;;;;;;;;5067187;28;20101;-68
2022/12/17 14:59:05;;;;;;;88.47;38.90;;;;;;;;;;5076621;28;20033;-68
2022/12/17 15:01:31;;;;;;;82.75;35.92;;;;;;;;;;5072258;28;20029;-69
2022/12/17 15:03:58;;;;;;;88.20;36.50;;;;;;;;;;5072174;28;20086;-68
2022/12/17 15:06:25;;;;;;;88.22;35.72;;;;;;;;;;5072962;28;20463;-70
2022/12/17 15:08:52;;;;;;;90.57;37.35;;;;;;;;;;5072399;28;20133;-68
2022/12/17 15:11:23;;;;;;;85.65;35.88;;;;;;;;;;5073036;28;20016;-68
2022/12/17 15:13:51;;;;;;;81.88;35.08;;;;;;;;;;5070059;28;20045;-69
2022/12/17 15:16:17;;;;;;;87.00;35.25;;;;;;;;;;5071365;28;20108;-68
2022/12/17 15:18:43;;;;;;;84.43;35.53;;;;;;;;;;5071674;28;20112;-68
2022/12/17 15:21:11;;;;;;;87.43;35.88;;;;;;;;;;5072962;28;20428;-69
2022/12/17 15:23:40;;;;;;;85.65;36.53;;;;;;;;;;5073755;28;20077;-69
2022/12/17 15:26:05;;;;;;;88.63;37.42;;;-5.90;99.90;;;;;;5077116;28;20108;-69
2022/12/17 15:28:31;;;;;;;86.10;34.50;;;-6.00;99.90;;;;;;5052600;28;20115;-69
2022/12/17 15:30:56;;;;;;;85.80;36.88;;;-6.10;99.90;;;;;;5072735;28;20028;-69
2022/12/17 15:33:22;;;;;;;79.95;34.78;;;-6.20;99.90;;;;;;5068961;28;20029;-69
2022/12/17 15:35:47;;;;;;;79.95;35.85;;;-6.30;99.90;;;;;;5069392;28;20223;-69
2022/12/17 15:38:13;;;;;;;83.35;34.13;;;-6.40;99.90;;;;;;5071631;28;20029;-69
2022/12/17 15:40:39;;;;;;;85.25;34.78;;;-6.40;99.90;;;;;;5070857;28;20028;-71
2022/12/17 15:43:10;;;;;;;89.15;36.85;;;-6.50;99.90;;;;;;5072200;28;20122;-68
2022/12/17 15:45:41;;;;;;;88.07;37.05;;;-6.60;99.90;;;;;;5071274;28;20441;-69
2022/12/17 15:48:08;;;;;;;80.55;36.10;;;;;;;;;;5072064;28;20100;-69
2022/12/17 15:50:33;;;;;;;91.30;37.50;;;-6.70;99.90;;;;;;5070106;28;20024;-68
2022/12/17 15:52:59;;;;;;;87.53;36.00;;;-6.70;99.90;;;;;;5071338;28;20040;-69
2022/12/17 15:55:25;;;;;;;90.70;36.75;;;-6.80;99.90;;;;;;5071415;28;20481;-68
2022/12/17 15:57:50;;;;;;;95.38;37.65;;;-6.80;99.90;;;;;;5076391;28;20032;-68
2022/12/17 16:00:17;;;;;;;86.82;37.75;;;-6.80;99.90;;;;;;5071892;28;20055;-69
2022/12/17 16:02:42;;;;;;;85.47;37.45;;;-6.80;99.90;;;;;;5069684;28;20077;-73
2022/12/17 16:05:09;;;;;;;91.20;37.38;;;-6.80;99.90;;;;;;5082772;28;20474;-66
2022/12/17 16:07:35;;;;;;;91.38;37.92;;;-6.90;99.90;;;;;;5065547;28;20025;-71
2022/12/17 16:10:01;;;;;;;93.90;39.42;;;-6.90;99.90;;;;;;5073085;28;20048;-69
2022/12/17 16:12:27;;;;;;;99.35;40.08;;;-6.90;99.90;;;;;;5073825;28;20066;-71
2022/12/17 16:14:52;;;;;;;88.45;37.03;;;-7.00;99.90;;;;;;5076163;28;20155;-70
2022/12/17 16:17:18;;;;;;;89.45;37.53;;;-7.00;99.90;;;;;;5073354;28;20041;-65
2022/12/17 16:19:43;;;;;;;83.63;36.67;;;-7.10;99.90;;;;;;5074048;28;20104;-68
2022/12/17 16:22:09;;;;;;;85.32;37.70;;;-7.20;99.90;;;;;;5071444;28;20024;-68
2022/12/17 16:24:35;;;;;;;94.88;40.22;;;-7.30;99.90;;;;;;5053518;28;20327;-67
2022/12/17 16:27:00;;;;;;;95.03;39.50;;;-7.30;99.90;;;;;;5067571;28;20021;-73
2022/12/17 16:29:26;;;;;;;93.10;38.58;;;-7.30;99.90;;;;;;5076159;28;20033;-71
2022/12/17 16:31:51;;;;;;;86.00;36.15;;;-7.40;99.90;;;;;;5068956;28;20047;-69
2022/12/17 16:34:17;;;;;;;90.53;37.25;;;-7.40;99.90;;;;;;5057029;28;20107;-67
2022/12/17 16:36:43;;;;;;;88.03;35.80;;;-7.50;99.90;;;;;;5064843;28;20151;-67
2022/12/17 16:39:14;;;;;;;87.85;37.97;;;-7.60;99.90;;;;;;5076102;28;20472;-68
2022/12/17 16:41:41;;;;;;;86.07;37.63;;;-7.60;99.90;;;;;;5068835;28;20104;-69
2022/12/17 16:44:06;;;;;;;89.80;37.78;;;-7.70;99.90;;;;;;5072625;28;20027;-67
2022/12/17 16:46:34;;;;;;;97.57;38.80;;;-7.70;99.90;;;;;;5067812;28;20492;-67
2022/12/17 16:49:10;;;;;;;88.95;38.35;;;-7.70;99.90;;;;;;5086198;28;20527;-68
2022/12/17 16:51:36;;;;;;;85.72;37.55;;;-7.60;99.90;;;;;;5070049;28;20029;-68
2022/12/17 16:54:06;;;;;;;95.78;37.05;;;-7.70;99.90;;;;;;5082466;28;20366;-67
2022/12/17 16:56:32;;;;;;;94.93;38.28;;;-7.70;99.90;;;;;;5065579;28;20062;-68
2022/12/17 16:58:58;;;;;;;92.68;40.03;;;-7.70;99.90;;;;;;5086923;28;20039;-67
2022/12/17 17:01:26;;;;;;;95.55;39.17;;;-7.70;99.90;;;;;;5077380;28;20036;-70
2022/12/17 17:03:53;;;;;;;97.35;39.15;;;-7.70;99.90;;;;;;5075259;28;20033;-67
2022/12/17 17:06:19;;;;;;;96.78;39.53;;;-7.70;99.90;;;;;;5061470;28;20044;-67
2022/12/17 17:08:45;;;;;;;100.20;40.17;;;-7.80;99.90;;;;;;5063471;28;20035;-68
2022/12/17 17:11:14;;;;;;;101.45;39.22;;;-7.70;99.90;;;;;;5069091;28;20447;-64
2022/12/17 17:13:41;;;;;;;98.00;39.97;;;-7.70;99.90;;;;;;5073618;28;20091;-67
2022/12/17 17:16:08;;;;;;;101.25;41.75;;;-7.70;99.90;;;;;;5073086;28;20101;-67
2022/12/17 17:18:35;;;;;;;102.22;41.80;;;-7.80;99.90;;;;;;5068397;28;20024;-70
2022/12/17 17:21:17;;;;;;;99.93;40.50;;;-7.80;99.90;;;;;;5073018;28;20024;-68
2022/12/17 17:23:43;;;;;;;109.05;44.75;;;-7.90;99.90;;;;;;5068013;28;20120;-68
2022/12/17 17:26:09;;;;;;;100.55;41.22;;;-7.80;99.90;;;;;;5073056;28;20106;-67
2022/12/17 17:28:35;;;;;;;97.55;42.00;;;-7.90;99.90;;;;;;5067408;28;20447;-66
2022/12/17 17:31:02;;;;;;;108.55;42.65;;;-8.00;99.90;;;;;;5070344;28;20029;-72
2022/12/17 17:33:37;;;;;;;104.88;42.30;;;-8.00;99.90;;;;;;5069165;28;20017;-67
2022/12/17 17:36:20;;;;;;;102.45;42.00;;;-8.10;99.90;;;;;;5073469;28;20052;-66
2022/12/17 17:38:47;;;;;;;95.05;39.28;;;-8.00;99.90;;;;;;5073468;28;20028;-66
2022/12/17 17:41:17;;;;;;;92.38;36.97;;;-8.10;99.90;;;;;;5074483;28;20028;-68
2022/12/17 17:43:43;;;;;;;90.25;39.28;;;-8.10;99.90;;;;;;5077374;28;20039;-69
2022/12/17 17:46:11;;;;;;;106.00;40.58;;;-8.20;99.90;;;;;;5076546;28;20031;-70
2022/12/17 17:48:37;;;;;;;105.00;40.65;;;-8.20;99.90;;;;;;5076499;28;20183;-70
2022/12/17 17:51:06;;;;;;;105.15;41.42;;;-8.20;99.90;;;;;;5074587;28;20518;-70
2022/12/17 17:53:32;;;;;;;105.20;41.42;;;-8.20;99.90;;;;;;5072914;28;20047;-71
2022/12/17 17:56:15;;;;;;;105.63;40.85;;;-8.10;99.90;;;;;;5071207;28;20016;-70
2022/12/17 17:58:46;;;;;;;107.07;42.55;;;-8.10;99.90;;;;;;5076370;28;20078;-69
2022/12/17 18:01:15;;;;;;;104.03;41.50;;;-8.10;99.90;;;;;;5075161;28;20078;-70
2022/12/17 18:03:41;;;;;;;105.00;39.28;;;-8.20;99.90;;;;;;5077958;28;20111;-70
2022/12/17 18:06:09;;;;;;;101.78;41.30;;;-8.20;99.90;;;;;;5075760;28;20592;-70
2022/12/17 18:08:35;;;;;;;93.45;39.05;;;-8.20;99.90;;;;;;5076590;28;20457;-70
2022/12/17 18:11:03;;;;;;;107.53;42.03;;;-8.30;99.90;;;;;;5077881;28;20196;-69
2022/12/17 18:16:14;;;;;;;105.85;43.20;;;;;;;;;;5074032;28;20500;-70
2022/12/17 18:18:40;;;;;;;112.72;44.88;;;;;;;;;;5076362;28;20092;-71
2022/12/17 18:21:10;;;;;;;112.13;46.53;;;;;;;;;;5074823;28;20176;-69
2022/12/17 18:23:37;;;;;;;105.78;41.63;;;-8.50;99.90;;;;;;5076618;28;20160;-69
2022/12/17 18:26:13;;;;;;;102.97;42.63;;;-8.60;99.90;;;;;;5075573;28;20074;-69
2022/12/17 18:28:41;;;;;;;105.28;41.33;;;-8.60;99.90;;;;;;5074417;28;20049;-69
2022/12/17 18:31:15;;;;;;;107.68;41.72;;;-8.70;99.90;;;;;;5072727;28;20067;-68
2022/12/17 18:33:44;;;;;;;115.75;42.83;;;-8.70;99.90;;;;;;5076207;28;20048;-67
2022/12/17 18:36:12;;;;;;;114.22;41.97;;;-8.70;99.90;;;;;;5071556;28;20058;-68
2022/12/17 18:38:38;;;;;;;111.53;42.15;;;-8.60;99.90;;;;;;5076265;28;20024;-69
2022/12/17 18:43:21;;;;;;;102.95;40.75;;;-8.50;99.90;;;;;;5073866;28;20024;-68
2022/12/17 18:43:51;;;;;;;112.32;43.70;;;-8.50;99.90;;;;;;5077069;28;20032;-68
2022/12/17 18:46:17;;;;;;;106.60;43.47;;;-8.50;99.90;;;;;;5052382;28;20033;-66
2022/12/17 18:48:42;;;;;;;116.47;45.90;;;-8.60;99.90;;;;;;5070777;28;20505;-66
2022/12/17 18:51:08;;;;;;;125.78;45.55;;;-8.60;99.90;;;;;;5070372;28;20166;-68
2022/12/17 18:53:33;;;;;;;112.85;43.60;;;-8.70;99.90;;;;;;5072767;28;20060;-68
2022/12/17 18:56:07;;;;;;;122.22;45.15;;;-8.80;99.90;;;;;;5070541;28;20029;-70
2022/12/17 18:58:32;;;;;;;121.35;45.80;;;-8.80;99.90;;;;;;5072754;28;20021;-67
2022/12/17 19:00:58;;;;;;;108.65;42.20;;;-8.90;99.90;;;;;;5070303;28;20035;-69
2022/12/17 19:03:23;;;;;;;110.57;41.85;;;-9.00;99.90;;;;;;5071849;28;20115;-67
2022/12/17 19:05:49;;;;;;;112.78;43.28;;;-9.00;99.90;;;;;;5068874;28;20033;-69
2022/12/17 19:08:15;;;;;;;112.60;42.88;;;-9.10;99.90;;;;;;5072098;28;20061;-68
2022/12/17 19:10:41;;;;;;;127.07;47.25;;;-9.10;99.90;;;;;;5071807;28;20028;-68
2022/12/17 19:13:07;;;;;;;121.45;44.85;;;-9.10;99.90;;;;;;5069393;28;20500;-67
2022/12/17 19:15:34;;;;;;;127.72;43.42;;;-9.10;99.90;;;;;;5068580;28;20044;-67
2022/12/17 19:18:00;;;;;;;105.63;41.00;;;-9.10;99.90;;;;;;5070087;28;20473;-70
2022/12/17 19:20:25;;;;;;;112.47;41.92;;;-9.10;99.90;;;;;;5079154;28;20027;-68
2022/12/17 19:22:51;;;;;;;125.38;48.20;;;-9.10;99.90;;;;;;5072489;28;20031;-72
2022/12/17 19:25:17;;;;;;;114.90;44.17;;;-9.10;99.90;;;;;;5075607;28;20472;-70
2022/12/17 19:27:42;;;;;;;118.35;42.95;;;-9.10;99.90;;;;;;5070274;28;20770;-70
2022/12/17 19:30:09;;;;;;;132.75;45.22;;;-9.10;99.90;;;;;;5076100;28;20028;-68
2022/12/17 19:32:34;;;;;;;113.85;46.42;;;-9.10;99.90;;;;;;5071418;28;20368;-71
2022/12/17 19:35:00;;;;;;;130.45;50.42;;;-9.10;99.90;;;;;;5074258;28;20115;-71
2022/12/17 19:37:26;;;;;;;132.63;51.47;;;-9.20;99.90;;;;;;5069124;28;20020;-73
2022/12/17 19:39:51;;;;;;;129.25;50.10;;;-9.20;99.90;;;;;;5073693;28;20073;-71
2022/12/17 19:42:23;;;;;;;120.57;45.65;;;-9.20;99.90;;;;;;5069967;28;20682;-71
2022/12/17 19:44:53;;;;;;;125.40;46.53;;;-9.30;99.90;;;;;;5068079;28;20047;-70
2022/12/17 19:47:20;;;;;;;115.88;44.70;;;-9.30;99.90;;;;;;5067306;28;20032;-70
2022/12/17 19:49:46;;;;;;;137.50;45.30;;;-9.30;99.90;;;;;;5079744;28;20168;-72
2022/12/17 19:52:12;;;;;;;117.55;44.90;;;-9.30;99.90;;;;;;5069318;28;20024;-72
2022/12/17 19:54:37;;;;;;;110.80;43.50;;;-9.30;99.90;;;;;;5070774;28;20386;-69
2022/12/17 19:57:03;;;;;;;114.57;43.38;;;-9.30;99.90;;;;;;5070898;28;20040;-71
2022/12/17 19:59:29;;;;;;;118.75;43.92;;;-9.30;99.90;;;;;;5053482;28;20119;-73
2022/12/17 20:01:54;;;;;;;127.10;45.72;;;-9.30;99.90;;;;;;5069253;28;20017;-72
2022/12/17 20:04:20;;;;;;;126.85;44.97;;;-9.30;99.90;;;;;;5071276;28;20036;-70
2022/12/17 20:06:45;;;;;;;117.10;44.30;;;-9.30;99.90;;;;;;5069272;28;20461;-71
2022/12/17 20:09:12;;;;;;;123.85;44.65;;;-9.30;99.90;;;;;;5073180;28;20081;-71
2022/12/17 20:11:39;;;;;;;121.53;44.28;;;-9.30;99.90;;;;;;5068962;28;20033;-71
2022/12/17 20:14:07;;;;;;;118.22;47.05;;;-9.30;99.90;;;;;;5070374;28;20063;-72
2022/12/17 20:16:44;;;;;;;117.75;44.15;;;-9.30;99.90;;;;;;5067530;28;20103;-72
2022/12/17 20:19:13;;;;;;;113.40;44.50;;;-9.40;99.90;;;;;;5075904;28;20027;-72
2022/12/17 20:21:39;;;;;;;118.05;43.55;;;-9.40;99.90;;;;;;5066767;28;20020;-70
2022/12/17 20:24:05;;;;;;;111.22;42.13;;;-9.40;99.90;;;;;;5073210;28;20110;-70
2022/12/17 20:26:31;;;;;;;119.43;44.88;;;-9.40;99.90;;;;;;5069426;28;20160;-73
2022/12/17 20:28:58;;;;;;;128.88;46.90;;;-9.50;99.90;;;;;;5071511;28;20056;-75
2022/12/17 20:31:24;;;;;;;121.43;45.17;;;-9.40;99.90;;;;;;5070870;28;20115;-77
2022/12/17 20:33:49;;;;;;;114.82;42.97;;;-9.40;99.90;;;;;;5072232;28;20458;-77
2022/12/17 20:36:17;;;;;;;122.60;44.78;;;-9.40;99.90;;;;;;5069773;28;20024;-72
2022/12/17 20:38:43;;;;;;;120.25;44.45;;;-9.50;99.90;;;;;;5069212;28;20029;-69
2022/12/17 20:41:12;;;;;;;123.97;46.28;;;-9.50;99.90;;;;;;5067382;28;20393;-68
2022/12/17 20:43:38;;;;;;;119.37;43.30;;;-9.50;99.90;;;;;;5053236;28;20432;-69
2022/12/17 20:46:05;;;;;;;123.82;43.03;;;-9.50;99.90;;;;;;5065763;28;20623;-69
2022/12/17 20:48:31;;;;;;;127.82;45.80;;;-9.50;99.90;;;;;;5044546;28;20444;-70
2022/12/17 20:50:57;;;;;;;124.43;45.22;;;-9.50;99.90;;;;;;5050206;28;20029;-71
2022/12/17 20:53:22;;;;;;;118.55;42.75;;;-9.50;99.90;;;;;;5071074;28;20032;-70
2022/12/17 20:55:59;;;;;;;141.40;52.83;;;-9.50;99.90;;;;;;5065037;28;20103;-71
2022/12/17 20:58:25;;;;;;;123.32;46.65;;;-9.50;99.90;;;;;;5051997;28;20035;-72
2022/12/17 21:00:51;;;;;;;128.18;43.75;;;-9.50;99.90;;;;;;5054127;28;20028;-73
2022/12/17 21:03:16;;;;;;;117.18;44.53;;;-9.50;99.90;;;;;;5052473;28;20384;-73
2022/12/17 21:05:42;;;;;;;122.53;44.97;;;-9.50;99.90;;;;;;5068419;28;20060;-72
2022/12/17 21:08:07;;;;;;;117.95;43.75;;;-9.50;99.90;;;;;;5053534;28;20028;-71
2022/12/17 21:10:33;;;;;;;120.28;44.47;;;-9.50;99.90;;;;;;5069329;28;20032;-71
2022/12/17 21:15:49;;;;;;;122.28;44.60;;;-9.50;99.90;;;;;;5081647;28;20624;-71
2022/12/17 21:18:15;;;;;;;128.38;44.22;;;-9.60;99.90;;;;;;5079437;28;20035;-70
2022/12/17 21:20:41;;;;;;;118.22;44.03;;;-9.60;99.90;;;;;;5079820;28;20033;-71
2022/12/17 21:23:06;;;;;;;130.90;45.17;;;-9.60;99.90;;;;;;5079566;28;20107;-71
2022/12/17 21:25:32;;;;;;;114.57;41.90;;;-9.60;99.90;;;;;;5060803;28;20060;-71
2022/12/17 21:27:57;;;;;;;129.25;44.72;;;-9.60;99.90;;;;;;5061221;28;20053;-70
2022/12/17 21:30:23;;;;;;;131.07;45.05;;;-9.60;99.90;;;;;;5078641;28;20028;-71
2022/12/17 21:32:49;;;;;;;134.75;48.80;;;-9.60;99.90;;;;;;5073556;28;20036;-70
2022/12/17 21:35:14;;;;;;;138.13;46.55;;;-9.50;99.90;;;;;;5075301;28;20028;-70
2022/12/17 21:37:40;;;;;;;131.80;45.55;;;-9.50;99.90;;;;;;5068245;28;20021;-71
2022/12/17 21:40:06;;;;;;;127.57;44.72;;;-9.50;99.90;;;;;;5066400;28;20032;-71
2022/12/17 21:45:16;;;;;;;139.30;45.75;;;-9.50;99.90;;;;;;5067054;28;20074;-71
2022/12/17 21:47:41;;;;;;;119.78;41.60;;;-9.50;99.90;;;;;;5067090;28;20029;-72
2022/12/17 21:50:07;;;;;;;130.18;47.08;;;-9.50;99.90;;;;;;5068324;28;20032;-73
2022/12/17 21:52:33;;;;;;;118.75;42.42;;;-9.50;99.90;;;;;;5068067;28;20040;-72
2022/12/17 21:54:58;;;;;;;131.30;45.08;;;-9.60;99.90;;;;;;5069418;28;20110;-72
2022/12/17 21:57:24;;;;;;;128.75;45.95;;;-9.60;99.90;;;;;;5051949;28;20037;-73
2022/12/17 21:59:49;;;;;;;125.13;44.78;;;-9.60;99.90;;;;;;5069280;28;20042;-72
2022/12/17 22:02:15;;;;;;;129.77;45.90;;;-9.50;99.90;;;;;;5063661;28;20035;-70
2022/12/17 22:04:41;;;;;;;131.52;45.45;;;-9.50;99.90;;;;;;5069541;28;20032;-71
2022/12/17 22:07:06;;;;;;;140.75;48.40;;;-9.50;99.90;;;;;;5063316;28;20025;-70
2022/12/17 22:09:32;;;;;;;130.05;46.50;;;-9.40;99.90;;;;;;5069041;28;20483;-72
2022/12/17 22:14:46;;;;;;;123.88;42.65;;;-9.20;99.90;;;;;;5069535;28;20116;-73
2022/12/17 22:17:11;;;;;;;119.05;44.15;;;-9.20;99.90;;;;;;5068549;28;20144;-71
2022/12/17 22:19:37;;;;;;;129.75;42.45;;;-9.20;99.90;;;;;;5070051;28;20104;-73
2022/12/17 22:22:03;;;;;;;118.70;42.55;;;-9.20;99.90;;;;;;5076207;28;20039;-71
2022/12/17 22:24:28;;;;;;;114.45;42.33;;;-9.30;99.90;;;;;;5080101;28;20509;-72
2022/12/17 22:26:58;;;;;;;132.32;48.30;;;-9.30;99.90;;;;;;5073979;28;20392;-69
2022/12/17 22:34:54;;;;;;;118.00;43.90;;;-9.30;99.90;;;;;;5072799;28;20039;-71
2022/12/17 22:37:20;;;;;;;125.88;43.50;;;-9.40;99.90;;;;;;5073583;28;20028;-70
2022/12/17 22:39:46;;;;;;;133.85;45.17;;;-9.40;99.90;;;;;;5070765;28;20675;-71
2022/12/17 22:44:55;;;;;;;132.10;44.20;;;-9.40;99.90;;;;;;5071373;28;20421;-71
2022/12/17 22:47:21;;;;;;;128.10;45.58;;;-9.40;99.90;;;;;;5072501;28;20024;-71
2022/12/17 22:49:46;;;;;;;122.25;44.97;;;-9.40;99.90;;;;;;5070802;28;20607;-70
2022/12/17 22:52:12;;;;;;;131.05;47.03;;;-9.50;99.90;;;;;;5072480;28;20032;-70
2022/12/17 22:54:37;;;;;;;132.13;48.75;;;-9.50;99.90;;;;;;5071658;28;20030;-69
2022/12/17 22:57:03;;;;;;;115.55;45.45;;;-9.50;99.90;;;;;;5070243;28;20036;-70
2022/12/17 22:59:28;;;;;;;134.50;48.63;;;-9.60;99.90;;;;;;5071399;28;20137;-71
2022/12/17 23:01:54;;;;;;;122.57;44.63;;;-9.60;99.90;;;;;;5072141;28;20485;-70
2022/12/17 23:04:20;;;;;;;117.15;42.67;;;-9.60;99.90;;;;;;5054413;28;20028;-70
2022/12/17 23:06:45;;;;;;;116.35;42.75;;;-9.60;99.90;;;;;;5071150;28;20487;-70
2022/12/17 23:09:20;;;;;;;115.95;44.85;;;-9.60;99.90;;;;;;5072511;28;20020;-70
2022/12/17 23:11:47;;;;;;;118.80;42.38;;;-9.60;99.90;;;;;;5069791;28;20028;-70
2022/12/17 23:14:13;;;;;;;105.68;41.03;;;-9.60;99.90;;;;;;5072987;28;20032;-71
2022/12/17 23:16:39;;;;;;;104.65;39.65;;;-9.70;99.90;;;;;;5070796;28;20036;-71
2022/12/17 23:19:06;;;;;;;97.22;39.75;;;-9.80;99.90;;;;;;5072118;28;20111;-70
2022/12/17 23:21:32;;;;;;;111.15;40.13;;;-9.80;99.90;;;;;;5070189;28;20140;-69
2022/12/17 23:23:58;;;;;;;102.15;39.58;;;-9.90;99.90;;;;;;5071934;28;20249;-69
2022/12/17 23:26:29;;;;;;;113.63;42.53;;;-9.90;99.90;;;;;;5068644;28;20021;-69
2022/12/17 23:29:01;;;;;;;117.13;41.55;;;-9.90;99.90;;;;;;5071149;28;20138;-69
2022/12/17 23:31:30;;;;;;;111.32;39.05;;;-9.90;99.90;;;;;;5073660;28;20033;-71
2022/12/17 23:33:56;;;;;;;112.15;41.97;;;-9.90;99.90;;;;;;5070552;28;20033;-70
2022/12/17 23:36:24;;;;;;;109.88;41.53;;;-9.80;99.90;;;;;;5072329;28;20032;-69
2022/12/17 23:38:51;;;;;;;111.97;41.38;;;-9.70;99.90;;;;;;5071711;28;20035;-70
2022/12/17 23:41:22;;;;;;;111.53;39.40;;;-9.60;99.90;;;;;;5072692;28;20028;-70
2022/12/17 23:43:49;;;;;;;116.35;41.47;;;-9.60;99.90;;;;;;5071200;28;20047;-70
2022/12/17 23:46:16;;;;;;;101.35;38.13;;;-9.60;99.90;;;;;;5070367;28;20112;-70
2022/12/17 23:48:44;;;;;;;109.57;39.75;;;-9.60;99.90;;;;;;5073296;28;20520;-69
2022/12/17 23:51:12;;;;;;;93.53;38.10;;;-9.60;99.90;;;;;;5072381;28;20082;-69
2022/12/17 23:53:38;;;;;;;104.15;38.00;;;-9.70;99.90;;;;;;5053509;28;20028;-69
2022/12/17 23:56:16;;;;;;;99.55;37.63;;;-9.80;99.90;;;;;;5064391;28;20474;-69
2022/12/17 23:58:43;;;;;;;110.95;39.55;;;-9.80;99.90;;;;;;5076935;28;20389;-69
